createdAt,value
2023-04-09T00:01:40.286Z,72.48
2023-04-09T00:04:07.164Z,72.43
2023-04-09T00:06:33.900Z,72.47
2023-04-09T00:09:00.804Z,72.14
2023-04-09T00:11:27.425Z,72.32
2023-04-09T00:13:54.053Z,72.11
2023-04-09T00:16:20.788Z,72.14
2023-04-09T00:18:47.541Z,72.08
2023-04-09T00:21:16.234Z,72.19
2023-04-09T00:23:44.185Z,71.97
2023-04-09T00:26:11.074Z,72.08
2023-04-09T00:28:37.753Z,72.21
2023-04-09T00:31:04.496Z,72.20
2023-04-09T00:33:31.451Z,72.20
2023-04-09T00:35:58.244Z,72.50
2023-04-09T00:38:24.957Z,72.68
2023-04-09T00:40:52.114Z,73.03
2023-04-09T00:43:18.782Z,73.20
2023-04-09T00:45:46.163Z,73.51
2023-04-09T00:48:14.270Z,73.74
2023-04-09T00:50:42.313Z,73.99
2023-04-09T00:53:10.753Z,73.99
2023-04-09T00:55:40.461Z,73.98
2023-04-09T00:58:07.659Z,74.18
2023-04-09T01:00:34.808Z,74.26
2023-04-09T01:03:02.400Z,74.63
2023-04-09T01:05:41.417Z,74.78
2023-04-09T01:08:56.062Z,75.13
2023-04-09T01:11:40.845Z,75.11
2023-04-09T01:14:30.021Z,75.17
2023-04-09T01:17:03.530Z,75.30
2023-04-09T01:19:32.954Z,75.29
2023-04-09T01:22:00.657Z,75.16
2023-04-09T01:24:51.954Z,75.30
2023-04-09T01:27:18.993Z,75.34
2023-04-09T01:29:47.987Z,75.49
2023-04-09T01:32:19.225Z,75.57
2023-04-09T01:34:47.661Z,75.68
2023-04-09T01:37:16.916Z,75.75
2023-04-09T01:39:44.226Z,75.92
2023-04-09T01:42:12.510Z,75.89
2023-04-09T01:44:41.600Z,76.01
2023-04-09T01:47:09.710Z,76.09
2023-04-09T01:49:38.552Z,75.89
2023-04-09T01:52:05.606Z,75.92
2023-04-09T01:54:33.072Z,75.91
2023-04-09T01:56:59.813Z,75.90
2023-04-09T01:59:26.444Z,75.86
2023-04-09T02:02:05.316Z,75.54
2023-04-09T02:04:46.635Z,75.96
2023-04-09T02:07:28.414Z,75.84
2023-04-09T02:09:55.973Z,76.10
2023-04-09T02:12:25.269Z,76.03
2023-04-09T02:14:54.776Z,75.99
2023-04-09T02:17:21.649Z,76.29
2023-04-09T02:19:48.801Z,76.02
2023-04-09T02:22:16.897Z,76.20
2023-04-09T02:24:43.974Z,76.28
2023-04-09T02:27:10.638Z,76.35
2023-04-09T02:29:37.303Z,76.47
2023-04-09T02:32:04.090Z,76.61
2023-04-09T02:34:31.168Z,76.73
2023-04-09T02:36:57.780Z,76.77
2023-04-09T02:39:24.450Z,77.02
2023-04-09T02:41:51.098Z,77.34
2023-04-09T02:44:17.737Z,77.35
2023-04-09T02:46:46.484Z,77.42
2023-04-09T02:49:13.153Z,77.55
2023-04-09T02:51:39.848Z,77.52
2023-04-09T02:54:06.606Z,77.69
2023-04-09T02:56:33.264Z,77.82
2023-04-09T02:58:59.914Z,77.98
2023-04-09T03:01:26.596Z,78.08
2023-04-09T03:03:53.383Z,78.17
2023-04-09T03:06:20.166Z,78.06
2023-04-09T03:08:46.799Z,78.13
2023-04-09T03:11:13.553Z,78.29
2023-04-09T03:13:40.173Z,78.13
2023-04-09T03:16:07.343Z,78.19
2023-04-09T03:18:34.128Z,78.36
2023-04-09T03:21:05.494Z,78.33
2023-04-09T03:23:35.010Z,78.30
2023-04-09T03:26:06.256Z,78.50
2023-04-09T03:28:33.141Z,78.24
2023-04-09T03:30:59.793Z,78.36
2023-04-09T03:33:26.577Z,78.35
2023-04-09T03:35:53.316Z,78.35
2023-04-09T03:38:20.164Z,78.34
2023-04-09T03:40:46.926Z,78.38
2023-04-09T03:43:13.635Z,78.30
2023-04-09T03:45:40.365Z,78.39
2023-04-09T03:48:08.091Z,78.47
2023-04-09T03:50:41.682Z,78.49
2023-04-09T03:53:08.395Z,78.54
2023-04-09T03:55:35.212Z,78.69
2023-04-09T03:58:01.987Z,78.63
2023-04-09T04:00:28.810Z,78.65
2023-04-09T04:02:55.755Z,78.97
2023-04-09T04:05:26.341Z,78.92
2023-04-09T04:07:53.772Z,79.18
2023-04-09T04:10:20.681Z,79.21
2023-04-09T04:12:47.551Z,79.37
2023-04-09T04:15:14.449Z,79.23
2023-04-09T04:17:41.168Z,79.60
2023-04-09T04:20:08.494Z,79.71
2023-04-09T04:22:35.836Z,79.77
2023-04-09T04:25:03.664Z,80.07
2023-04-09T04:27:30.370Z,80.07
2023-04-09T04:29:59.005Z,80.06
2023-04-09T04:32:26.187Z,80.29
2023-04-09T04:34:52.888Z,80.55
2023-04-09T04:37:19.690Z,80.62
2023-04-09T04:39:46.403Z,80.69
2023-04-09T04:42:13.045Z,80.72
2023-04-09T04:44:39.632Z,80.87
2023-04-09T04:47:06.278Z,80.95
2023-04-09T04:49:32.924Z,81.19
2023-04-09T04:51:59.547Z,81.35
2023-04-09T04:54:26.211Z,81.48
2023-04-09T04:56:52.945Z,81.68
2023-04-09T04:59:19.567Z,81.88
2023-04-09T05:01:46.291Z,82.16
2023-04-09T05:04:12.968Z,82.36
2023-04-09T05:06:39.790Z,82.27
2023-04-09T05:09:06.437Z,82.42
2023-04-09T05:11:33.042Z,82.77
2023-04-09T05:13:59.736Z,82.91
2023-04-09T05:16:27.164Z,83.14
2023-04-09T05:18:54.165Z,83.47
2023-04-09T05:21:21.115Z,83.50
2023-04-09T05:23:47.811Z,83.66
2023-04-09T05:26:14.460Z,83.57
2023-04-09T05:28:41.515Z,83.97
2023-04-09T05:31:13.135Z,84.23
2023-04-09T05:33:40.351Z,84.18
2023-04-09T05:36:07.879Z,84.20
2023-04-09T05:38:35.002Z,84.24
2023-04-09T05:41:01.650Z,84.35
2023-04-09T05:43:28.300Z,84.54
2023-04-09T05:45:55.029Z,84.73
2023-04-09T05:48:23.776Z,84.72
2023-04-09T05:50:55.181Z,84.81
2023-04-09T05:53:22.935Z,85.01
2023-04-09T05:55:49.697Z,85.08
2023-04-09T05:58:16.636Z,85.11
2023-04-09T06:00:43.256Z,85.15
2023-04-09T06:03:10.178Z,85.36
2023-04-09T06:05:36.944Z,85.33
2023-04-09T06:08:03.712Z,85.32
2023-04-09T06:10:32.858Z,85.46
2023-04-09T06:12:59.517Z,85.47
2023-04-09T06:15:26.388Z,85.38
2023-04-09T06:17:53.073Z,85.34
2023-04-09T06:20:19.827Z,85.31
2023-04-09T06:22:46.549Z,85.41
2023-04-09T06:25:13.217Z,85.51
2023-04-09T06:27:39.875Z,85.38
2023-04-09T06:30:07.227Z,85.56
2023-04-09T06:32:43.390Z,85.47
2023-04-09T06:35:18.862Z,85.37
2023-04-09T06:37:45.583Z,85.38
2023-04-09T06:40:12.816Z,85.33
2023-04-09T06:42:40.455Z,85.39
2023-04-09T06:45:08.773Z,85.32
2023-04-09T06:47:36.388Z,85.15
2023-04-09T06:50:03.715Z,85.21
2023-04-09T06:52:30.496Z,85.06
2023-04-09T06:54:57.184Z,85.19
2023-04-09T06:57:23.940Z,84.91
2023-04-09T06:59:50.571Z,84.98
2023-04-09T07:02:17.553Z,85.08
2023-04-09T07:04:44.434Z,85.04
2023-04-09T07:07:11.195Z,84.97
2023-04-09T07:09:37.816Z,85.01
2023-04-09T07:12:04.513Z,84.96
2023-04-09T07:14:31.219Z,84.89
2023-04-09T07:16:57.845Z,84.86
2023-04-09T07:19:24.520Z,84.88
2023-04-09T07:21:51.650Z,84.83
2023-04-09T07:24:18.348Z,84.71
2023-04-09T07:26:45.080Z,84.63
2023-04-09T07:29:12.082Z,84.76
2023-04-09T07:31:38.848Z,84.70
2023-04-09T07:34:06.422Z,84.74
2023-04-09T07:36:33.133Z,84.55
2023-04-09T07:38:59.824Z,84.69
2023-04-09T07:41:26.523Z,84.55
2023-04-09T07:43:53.162Z,84.37
2023-04-09T07:46:21.711Z,84.44
2023-04-09T07:48:50.068Z,84.57
2023-04-09T07:51:17.089Z,84.43
2023-04-09T07:53:43.795Z,84.38
2023-04-09T07:56:10.495Z,84.47
2023-04-09T07:58:38.199Z,84.57
2023-04-09T08:01:05.410Z,84.28
2023-04-09T08:03:32.542Z,84.57
2023-04-09T08:05:59.342Z,84.61
2023-04-09T08:08:26.118Z,84.83
2023-04-09T08:10:52.788Z,84.85
2023-04-09T08:13:20.576Z,84.73
2023-04-09T08:15:47.296Z,84.66
2023-04-09T08:18:14.309Z,84.80
2023-04-09T08:20:45.324Z,84.46
2023-04-09T08:23:12.634Z,84.43
2023-04-09T08:25:41.038Z,84.33
2023-04-09T08:28:08.420Z,84.43
2023-04-09T08:30:35.147Z,84.29
2023-04-09T08:33:02.625Z,84.38
2023-04-09T08:35:32.616Z,84.00
2023-04-09T08:37:59.968Z,84.12
2023-04-09T08:40:26.636Z,84.13
2023-04-09T08:42:59.510Z,83.98
2023-04-09T08:45:26.236Z,83.90
2023-04-09T08:47:53.226Z,83.79
2023-04-09T08:50:20.220Z,83.65
2023-04-09T08:52:50.416Z,83.54
2023-04-09T08:55:17.263Z,83.22
2023-04-09T08:57:43.979Z,83.03
2023-04-09T09:00:11.381Z,82.91
2023-04-09T09:02:40.176Z,82.80
2023-04-09T09:05:07.435Z,82.70
2023-04-09T09:07:34.408Z,82.57
2023-04-09T09:10:04.962Z,82.26
2023-04-09T09:12:38.677Z,81.66
2023-04-09T09:15:24.376Z,81.27
2023-04-09T09:17:58.863Z,80.57
2023-04-09T09:20:27.216Z,80.28
2023-04-09T09:22:55.911Z,80.02
2023-04-09T09:25:24.849Z,79.74
2023-04-09T09:27:52.163Z,79.54
2023-04-09T09:30:27.517Z,79.56
2023-04-09T09:33:04.533Z,79.28
2023-04-09T09:35:31.250Z,78.45
2023-04-09T09:38:03.295Z,78.14
2023-04-09T09:40:30.183Z,78.13
2023-04-09T09:42:57.960Z,78.00
2023-04-09T09:45:26.174Z,77.98
2023-04-09T09:47:54.213Z,77.75
2023-04-09T09:50:25.281Z,77.51
2023-04-09T09:53:04.750Z,77.34
2023-04-09T09:55:33.348Z,77.56
2023-04-09T09:58:04.065Z,77.13
2023-04-09T10:00:33.104Z,77.23
2023-04-09T10:03:08.525Z,76.84
2023-04-09T10:05:36.972Z,76.91
2023-04-09T10:08:04.607Z,76.70
2023-04-09T10:10:31.802Z,76.47
2023-04-09T10:12:59.367Z,76.49
2023-04-09T10:15:29.060Z,76.55
2023-04-09T10:17:56.783Z,76.51
2023-04-09T10:20:29.159Z,76.43
2023-04-09T10:22:57.373Z,76.35
2023-04-09T10:25:24.185Z,76.52
2023-04-09T10:28:02.708Z,76.78
2023-04-09T10:30:36.699Z,77.00
2023-04-09T10:33:29.682Z,77.09
2023-04-09T10:36:01.619Z,77.04
2023-04-09T10:38:35.939Z,77.11
2023-04-09T10:41:16.010Z,77.42
2023-04-09T10:43:43.648Z,77.57
2023-04-09T10:46:46.223Z,77.79
2023-04-09T10:49:16.385Z,77.85
2023-04-09T10:52:03.356Z,77.86
2023-04-09T10:54:33.312Z,77.98
2023-04-09T10:57:10.877Z,78.05
2023-04-09T10:59:42.380Z,78.03
2023-04-09T11:02:29.714Z,78.17
2023-04-09T11:05:02.582Z,78.09
2023-04-09T11:07:32.527Z,78.30
2023-04-09T11:09:59.157Z,78.39
2023-04-09T11:12:25.871Z,78.42
2023-04-09T11:14:52.527Z,78.64
2023-04-09T11:17:19.935Z,78.73
2023-04-09T11:19:47.088Z,78.74
2023-04-09T11:22:13.755Z,78.83
2023-04-09T11:24:44.544Z,79.06
2023-04-09T11:27:11.196Z,78.95
2023-04-09T11:29:37.856Z,79.01
2023-04-09T11:32:05.348Z,78.92
2023-04-09T11:34:32.697Z,78.79
2023-04-09T11:37:02.191Z,78.83
2023-04-09T11:39:31.077Z,78.64
2023-04-09T11:41:57.957Z,78.73
2023-04-09T11:44:24.596Z,78.44
2023-04-09T11:46:52.106Z,78.49
2023-04-09T11:49:18.880Z,78.48
2023-04-09T11:51:45.703Z,78.26
2023-04-09T11:54:12.469Z,78.18
2023-04-09T11:56:39.142Z,78.49
2023-04-09T11:59:05.950Z,78.47
2023-04-09T12:01:33.586Z,78.41
2023-04-09T12:04:01.452Z,78.32
2023-04-09T12:06:28.691Z,78.38
2023-04-09T12:08:58.990Z,78.39
2023-04-09T12:11:29.984Z,78.12
2023-04-09T12:14:01.333Z,78.04
2023-04-09T12:16:31.192Z,78.08
2023-04-09T12:19:02.798Z,77.70
2023-04-09T12:21:56.186Z,77.84
2023-04-09T12:24:28.072Z,77.65
2023-04-09T12:26:56.544Z,77.29
2023-04-09T12:29:23.469Z,77.05
2023-04-09T12:31:50.244Z,77.17
2023-04-09T12:34:17.191Z,77.12
2023-04-09T12:36:43.884Z,77.06
2023-04-09T12:39:10.720Z,76.96
2023-04-09T12:41:37.833Z,76.78
2023-04-09T12:44:05.260Z,76.87
2023-04-09T12:46:32.792Z,76.69
2023-04-09T12:48:59.600Z,76.84
2023-04-09T12:51:26.331Z,76.76
2023-04-09T12:53:54.443Z,76.91
2023-04-09T12:56:21.378Z,76.57
2023-04-09T12:58:48.089Z,76.75
2023-04-09T13:01:14.841Z,76.59
2023-04-09T13:03:41.923Z,76.60
2023-04-09T13:06:08.855Z,76.50
2023-04-09T13:08:35.926Z,76.38
2023-04-09T13:11:02.926Z,76.45
2023-04-09T13:13:29.837Z,76.23
2023-04-09T13:15:56.498Z,76.32
2023-04-09T13:18:23.183Z,76.37
2023-04-09T13:20:49.853Z,76.47
2023-04-09T13:23:16.512Z,76.21
2023-04-09T13:25:43.525Z,76.28
2023-04-09T13:28:10.237Z,76.26
2023-04-09T13:30:36.949Z,76.31
2023-04-09T13:33:06.736Z,76.27
2023-04-09T13:35:33.493Z,76.29
2023-04-09T13:38:01.296Z,76.34
2023-04-09T13:40:27.973Z,76.55
2023-04-09T13:42:56.142Z,76.62
2023-04-09T13:45:24.018Z,76.84
2023-04-09T13:47:51.162Z,77.01
2023-04-09T13:50:18.073Z,76.88
2023-04-09T13:52:46.992Z,77.13
2023-04-09T13:55:14.148Z,77.42
2023-04-09T13:57:41.111Z,77.55
2023-04-09T14:00:08.554Z,77.79
2023-04-09T14:02:35.394Z,77.88
2023-04-09T14:05:04.061Z,78.45
2023-04-09T14:07:32.179Z,78.63
2023-04-09T14:09:58.822Z,78.65
2023-04-09T14:12:25.799Z,78.96
2023-04-09T14:14:52.419Z,79.14
2023-04-09T14:17:19.093Z,79.34
2023-04-09T14:19:45.795Z,79.50
2023-04-09T14:22:12.653Z,79.57
2023-04-09T14:24:40.265Z,79.77
2023-04-09T14:27:07.828Z,79.69
2023-04-09T14:29:34.834Z,79.85
2023-04-09T14:32:01.552Z,79.72
2023-04-09T14:34:31.522Z,79.76
2023-04-09T14:36:58.266Z,79.92
2023-04-09T14:39:25.143Z,80.01
2023-04-09T14:41:52.361Z,79.50
2023-04-09T14:44:19.024Z,79.52
2023-04-09T14:46:45.840Z,79.47
2023-04-09T14:49:13.215Z,79.44
2023-04-09T14:51:39.968Z,79.49
2023-04-09T14:54:06.814Z,79.50
2023-04-09T14:56:33.529Z,79.08
2023-04-09T14:59:00.123Z,78.87
2023-04-09T15:01:28.212Z,78.61
2023-04-09T15:03:55.612Z,78.41
2023-04-09T15:06:22.700Z,78.53
2023-04-09T15:08:49.326Z,78.65
2023-04-09T15:11:17.218Z,78.39
2023-04-09T15:13:44.070Z,78.48
2023-04-09T15:16:11.553Z,78.62
2023-04-09T15:18:38.375Z,78.71
2023-04-09T15:21:05.534Z,78.60
2023-04-09T15:23:32.245Z,78.53
2023-04-09T15:25:59.100Z,78.66
2023-04-09T15:28:25.784Z,78.56
2023-04-09T15:30:54.668Z,78.41
2023-04-09T15:33:24.224Z,78.57
2023-04-09T15:35:51.000Z,78.66
2023-04-09T15:38:21.467Z,78.46
2023-04-09T15:40:48.114Z,78.69
2023-04-09T15:43:15.830Z,78.82
2023-04-09T15:45:42.666Z,79.05
2023-04-09T15:48:10.405Z,79.27
2023-04-09T15:50:37.076Z,79.58
2023-04-09T15:53:03.764Z,79.91
2023-04-09T15:55:30.840Z,80.19
2023-04-09T15:57:57.585Z,80.02
2023-04-09T16:00:24.388Z,80.46
2023-04-09T16:02:53.132Z,80.59
2023-04-09T16:05:19.829Z,80.60
2023-04-09T16:07:47.325Z,80.68
2023-04-09T16:10:15.051Z,80.40
2023-04-09T16:12:45.555Z,80.60
2023-04-09T16:15:12.209Z,80.45
2023-04-09T16:17:40.804Z,80.58
2023-04-09T16:20:08.876Z,80.89
2023-04-09T16:22:35.884Z,80.83
2023-04-09T16:25:02.562Z,80.97
2023-04-09T16:27:30.948Z,81.30
2023-04-09T16:29:58.642Z,81.54
2023-04-09T16:32:25.460Z,81.70
2023-04-09T16:34:52.876Z,81.90
2023-04-09T16:37:19.744Z,81.80
2023-04-09T16:39:46.406Z,81.96
2023-04-09T16:42:13.101Z,82.10
2023-04-09T16:44:40.284Z,82.10
2023-04-09T16:47:08.282Z,82.41
2023-04-09T16:49:35.041Z,82.37
2023-04-09T16:52:02.092Z,82.41
2023-04-09T16:54:29.564Z,82.73
2023-04-09T16:56:58.558Z,82.77
2023-04-09T16:59:25.412Z,82.91
2023-04-09T17:01:52.300Z,83.02
2023-04-09T17:04:19.716Z,83.32
2023-04-09T17:06:47.236Z,83.13
2023-04-09T17:09:14.026Z,83.12
2023-04-09T17:11:40.754Z,83.19
2023-04-09T17:14:07.428Z,83.23
2023-04-09T17:16:34.555Z,83.17
2023-04-09T17:19:01.721Z,83.18
2023-04-09T17:21:28.330Z,83.41
2023-04-09T17:23:54.963Z,83.32
2023-04-09T17:26:21.586Z,83.29
2023-04-09T17:28:48.185Z,83.22
2023-04-09T17:31:16.128Z,83.01
2023-04-09T17:33:48.028Z,82.74
2023-04-09T17:36:17.367Z,82.95
2023-04-09T17:38:44.088Z,82.89
2023-04-09T17:41:10.824Z,82.94
2023-04-09T17:43:37.732Z,83.08
2023-04-09T17:46:07.446Z,83.21
2023-04-09T17:48:36.517Z,83.53
2023-04-09T17:51:03.197Z,83.72
2023-04-09T17:53:29.858Z,83.65
2023-04-09T17:55:56.600Z,83.87
2023-04-09T17:58:24.916Z,84.06
2023-04-09T18:00:53.404Z,84.04
2023-04-09T18:03:20.418Z,84.17
2023-04-09T18:05:47.735Z,84.40
2023-04-09T18:08:14.425Z,84.40
2023-04-09T18:10:41.230Z,84.47
2023-04-09T18:13:07.985Z,84.48
2023-04-09T18:15:34.658Z,84.92
2023-04-09T18:18:01.391Z,84.94
2023-04-09T18:20:28.309Z,84.93
2023-04-09T18:22:55.762Z,85.17
2023-04-09T18:25:23.352Z,85.21
2023-04-09T18:27:50.568Z,85.38
2023-04-09T18:30:17.421Z,85.28
2023-04-09T18:32:44.432Z,85.28
2023-04-09T18:35:11.179Z,85.19
2023-04-09T18:37:38.347Z,84.95
2023-04-09T18:40:06.897Z,84.84
2023-04-09T18:42:33.501Z,84.68
2023-04-09T18:45:00.158Z,84.30
2023-04-09T18:47:27.006Z,84.24
2023-04-09T18:49:54.309Z,83.95
2023-04-09T18:52:21.099Z,83.49
2023-04-09T18:54:48.418Z,83.17
2023-04-09T18:57:15.534Z,82.91
2023-04-09T18:59:45.436Z,82.54
2023-04-09T19:02:12.251Z,82.55
2023-04-09T19:04:40.155Z,82.11
2023-04-09T19:07:07.170Z,81.91
2023-04-09T19:09:34.685Z,81.53
2023-04-09T19:12:02.083Z,81.54
2023-04-09T19:14:28.812Z,81.45
2023-04-09T19:16:55.922Z,81.26
2023-04-09T19:19:23.592Z,81.16
2023-04-09T19:21:50.673Z,80.58
2023-04-09T19:24:17.332Z,80.59
2023-04-09T19:26:43.963Z,80.40
2023-04-09T19:29:10.858Z,80.15
2023-04-09T19:31:41.517Z,79.90
2023-04-09T19:34:08.244Z,79.43
2023-04-09T19:36:35.088Z,79.42
2023-04-09T19:39:01.774Z,79.04
2023-04-09T19:41:28.539Z,79.08
2023-04-09T19:43:55.304Z,78.91
2023-04-09T19:46:22.012Z,78.99
2023-04-09T19:48:48.696Z,78.71
2023-04-09T19:51:20.080Z,78.67
2023-04-09T19:53:48.014Z,78.46
2023-04-09T19:56:15.138Z,78.60
2023-04-09T19:58:43.679Z,78.11
2023-04-09T20:01:10.708Z,78.08
2023-04-09T20:03:37.561Z,77.78
2023-04-09T20:06:09.939Z,77.64
2023-04-09T20:08:37.849Z,77.56
2023-04-09T20:11:05.127Z,77.63
2023-04-09T20:13:31.911Z,77.62
2023-04-09T20:15:58.603Z,77.63
2023-04-09T20:18:25.444Z,78.04
2023-04-09T20:20:53.092Z,78.22
2023-04-09T20:23:19.845Z,78.25
2023-04-09T20:25:46.713Z,78.27
2023-04-09T20:28:13.398Z,78.61
2023-04-09T20:30:40.096Z,78.63
2023-04-09T20:33:07.067Z,78.86
2023-04-09T20:35:36.271Z,78.90
2023-04-09T20:38:03.179Z,79.07
2023-04-09T20:40:32.020Z,78.96
2023-04-09T20:42:59.357Z,79.12
2023-04-09T20:45:26.250Z,79.27
2023-04-09T20:47:53.434Z,79.38
2023-04-09T20:50:20.102Z,79.48
2023-04-09T20:52:47.583Z,79.51
2023-04-09T20:55:15.008Z,79.73
2023-04-09T20:57:41.679Z,79.60
2023-04-09T21:00:08.999Z,79.64
2023-04-09T21:02:35.931Z,79.71
2023-04-09T21:05:11.836Z,79.85
2023-04-09T21:07:46.302Z,79.81
2023-04-09T21:10:13.332Z,79.94
2023-04-09T21:12:40.389Z,79.74
2023-04-09T21:15:07.707Z,79.79
2023-04-09T21:17:34.517Z,79.70
2023-04-09T21:20:01.342Z,80.17
2023-04-09T21:22:28.062Z,79.90
2023-04-09T21:24:56.506Z,79.98
2023-04-09T21:27:24.318Z,80.36
2023-04-09T21:29:51.038Z,80.50
2023-04-09T21:32:17.886Z,80.79
2023-04-09T21:34:45.497Z,81.26
2023-04-09T21:37:12.360Z,81.74
2023-04-09T21:39:39.067Z,81.85
2023-04-09T21:42:08.840Z,82.10
2023-04-09T21:44:35.632Z,82.41
2023-04-09T21:47:07.500Z,82.61
2023-04-09T21:49:39.066Z,83.21
2023-04-09T21:52:09.074Z,83.27
2023-04-09T21:54:36.116Z,83.69
2023-04-09T21:57:02.895Z,83.83
2023-04-09T21:59:29.500Z,84.23
2023-04-09T22:01:56.429Z,84.35
2023-04-09T22:04:23.167Z,84.56
2023-04-09T22:06:50.385Z,84.89
2023-04-09T22:09:17.106Z,85.32
2023-04-09T22:11:43.875Z,85.35
2023-04-09T22:14:11.330Z,85.78
2023-04-09T22:16:38.156Z,86.06
2023-04-09T22:19:04.900Z,86.29
2023-04-09T22:21:31.705Z,86.77
2023-04-09T22:23:58.420Z,87.10
2023-04-09T22:26:25.134Z,87.29
2023-04-09T22:28:52.481Z,87.46
2023-04-09T22:31:20.031Z,87.80
2023-04-09T22:33:46.962Z,88.14
2023-04-09T22:36:13.719Z,88.54
2023-04-09T22:38:40.475Z,88.55
2023-04-09T22:41:07.185Z,88.79
2023-04-09T22:43:33.908Z,88.92
2023-04-09T22:46:01.565Z,88.87
2023-04-09T22:48:29.193Z,89.14
2023-04-09T22:50:57.782Z,89.37
2023-04-09T22:53:24.487Z,89.76
2023-04-09T22:55:51.682Z,89.73
2023-04-09T22:58:19.198Z,90.03
2023-04-09T23:00:47.239Z,90.27
2023-04-09T23:03:14.341Z,90.45
2023-04-09T23:05:41.932Z,90.61
2023-04-09T23:08:09.485Z,90.65
2023-04-09T23:10:36.306Z,90.79
2023-04-09T23:13:02.982Z,90.81
2023-04-09T23:15:29.731Z,91.17
2023-04-09T23:17:56.761Z,91.55
2023-04-09T23:20:23.740Z,91.59
2023-04-09T23:22:50.644Z,91.85
2023-04-09T23:25:17.658Z,92.08
2023-04-09T23:27:44.578Z,92.19
2023-04-09T23:30:16.610Z,92.86
2023-04-09T23:32:44.590Z,93.99
2023-04-09T23:35:11.648Z,93.18
2023-04-09T23:37:42.660Z,93.39
2023-04-09T23:40:11.184Z,93.51
2023-04-09T23:42:38.049Z,93.34
2023-04-09T23:45:06.092Z,93.46
2023-04-09T23:47:34.781Z,93.45
2023-04-09T23:50:05.756Z,93.23
2023-04-09T23:52:37.764Z,93.25
2023-04-09T23:55:07.478Z,93.05
2023-04-09T23:57:35.367Z,92.87
